Yellowstone National Park, WY

6:38 AM MST on December 20, 2014 (GMT -0700)
RAWS GREBE WY US | Change Station
CLOSE
Current Station
Personal Weather Station
Location: Yellowstone National Park, WY
Elevation: 7899 ft
Nearby Weather Stations
Active Advisory: Winter Storm Watch

Elev 7899 ft 44.72 °N, 110.51 °W | Updated 49 minutes ago

Overcast
Overcast
23 °F
Feels Like 18 °F
N
4
Wind Variable Wind from SSW
Gusts 9.0 mph

Today
High -- | Low -- °F
--% Chance of Precip.
Yesterday
High -- | Low -- °F
Precip. -- in
7:55 AM 4:43 PM
Waning Crescent, 3% visible
Pressure 30.07 in
Visibility -9999.0 miles
Clouds
Windchill 18 °F
Dew Point 19 °F
Humidity 85%
Rainfall 0.00 in
Snow Depth Not available.
UV Not available.
Pollen .10 out of 12
Air Quality Not available.
Flu Activity Not available.
METAR KP60 201256Z AUTO VRB03KT M04/M06 A3000 RMK AO1 SLP181 T10441061

More Conditions Fewer Conditions

Pressure 30.07 in
Visibility -9999.0 miles
Clouds
Windchill 18 °F
Dew Point 19 °F
Humidity 85%
Rainfall 0.00 in
Snow Depth Not available.
UV Not available.
Pollen .10 out of 12
Air Quality Not available.
Flu Activity Not available.
METAR KP60 201256Z AUTO VRB03KT M04/M06 A3000 RMK AO1 SLP181 T10441061

More Conditions Fewer Conditions

10-Day Weather Forecast

Almanac

Astronomy

Dec. 20, 2014 Rise Set
Actual Time
Civil Twilight
Nautical Twilight
Astronomical Twilight
Moon
Length of Visible Light
Length of Day
Tomorrow will be .
, % of the Moon is Illuminated

Today's Extremes

State Highs State Lows

Community

WunderPhotos

Upload Photos

1,779,170 photos uploaded!

WunderBlogs® & News

Nearby

Air Quality

  Air Quality AQ Index Pollutant
Not available.

Snow Depth

Station Depth Elevation

Earthquake Activity

City Distance Mag. Time & Date
Minimum magnitude displayed is 2.5.

Coastal Water Temperatures

Place Temperature

Nearby Weather Stations